sensor_id;sensor_type;location;lat;lon;timestamp;temperature;humidity
20398;DHT22;10358;49.590;11.030;2023-11-19T00:01:27;5.90;99.90
20398;DHT22;10358;49.590;11.030;2023-11-19T00:03:53;5.90;99.90
20398;DHT22;10358;49.590;11.030;2023-11-19T00:06:18;5.90;99.90
20398;DHT22;10358;49.590;11.030;2023-11-19T00:08:44;6.00;99.90
20398;DHT22;10358;49.590;11.030;2023-11-19T00:11:10;6.00;99.90
20398;DHT22;10358;49.590;11.030;2023-11-19T00:13:36;5.90;99.90
20398;DHT22;10358;49.590;11.030;2023-11-19T00:16:02;5.90;99.90
20398;DHT22;10358;49.590;11.030;2023-11-19T00:18:29;5.90;99.90
20398;DHT22;10358;49.590;11.030;2023-11-19T00:20:55;6.00;99.90
20398;DHT22;10358;49.590;11.030;2023-11-19T00:23:20;6.00;99.90
20398;DHT22;10358;49.590;11.030;2023-11-19T00:25:46;6.00;99.90
20398;DHT22;10358;49.590;11.030;2023-11-19T00:28:13;6.00;99.90
20398;DHT22;10358;49.590;11.030;2023-11-19T00:30:38;6.00;99.90
20398;DHT22;10358;49.590;11.030;2023-11-19T00:33:06;6.00;99.90
20398;DHT22;10358;49.590;11.030;2023-11-19T00:35:31;6.00;99.90
20398;DHT22;10358;49.590;11.030;2023-11-19T00:37:57;6.00;99.90
20398;DHT22;10358;49.590;11.030;2023-11-19T00:40:24;6.00;99.90
20398;DHT22;10358;49.590;11.030;2023-11-19T00:42:50;6.00;99.90
20398;DHT22;10358;49.590;11.030;2023-11-19T00:45:15;6.00;99.90
20398;DHT22;10358;49.590;11.030;2023-11-19T00:47:41;6.00;99.90
20398;DHT22;10358;49.590;11.030;2023-11-19T00:50:07;6.00;99.90
20398;DHT22;10358;49.590;11.030;2023-11-19T00:52:37;6.00;99.90
20398;DHT22;10358;49.590;11.030;2023-11-19T00:55:03;6.00;99.90
20398;DHT22;10358;49.590;11.030;2023-11-19T00:57:32;6.00;99.90
20398;DHT22;10358;49.590;11.030;2023-11-19T01:00:01;6.00;99.90
20398;DHT22;10358;49.590;11.030;2023-11-19T01:02:28;6.00;99.90
20398;DHT22;10358;49.590;11.030;2023-11-19T01:04:53;6.00;99.90
20398;DHT22;10358;49.590;11.030;2023-11-19T01:07:19;6.00;99.90
20398;DHT22;10358;49.590;11.030;2023-11-19T01:09:44;6.00;99.90
20398;DHT22;10358;49.590;11.030;2023-11-19T01:12:10;6.00;99.90
20398;DHT22;10358;49.590;11.030;2023-11-19T01:14:36;6.10;99.90
20398;DHT22;10358;49.590;11.030;2023-11-19T01:17:02;6.10;99.90
20398;DHT22;10358;49.590;11.030;2023-11-19T01:19:27;6.10;99.90
20398;DHT22;10358;49.590;11.030;2023-11-19T01:21:54;6.10;99.90
20398;DHT22;10358;49.590;11.030;2023-11-19T01:24:20;6.10;99.90
20398;DHT22;10358;49.590;11.030;2023-11-19T01:26:46;6.10;99.90
20398;DHT22;10358;49.590;11.030;2023-11-19T01:29:13;6.10;99.90
20398;DHT22;10358;49.590;11.030;2023-11-19T01:31:42;6.10;99.90
20398;DHT22;10358;49.590;11.030;2023-11-19T01:34:08;6.10;99.90
20398;DHT22;10358;49.590;11.030;2023-11-19T01:36:34;6.10;99.90
20398;DHT22;10358;49.590;11.030;2023-11-19T01:39:00;6.20;99.90
20398;DHT22;10358;49.590;11.030;2023-11-19T01:41:25;6.10;99.90
20398;DHT22;10358;49.590;11.030;2023-11-19T01:43:51;6.20;99.90
20398;DHT22;10358;49.590;11.030;2023-11-19T01:46:16;6.20;99.90
20398;DHT22;10358;49.590;11.030;2023-11-19T01:48:44;6.20;99.90
20398;DHT22;10358;49.590;11.030;2023-11-19T01:51:12;6.20;99.90
20398;DHT22;10358;49.590;11.030;2023-11-19T01:53:38;6.20;99.90
20398;DHT22;10358;49.590;11.030;2023-11-19T01:56:06;6.20;99.90
20398;DHT22;10358;49.590;11.030;2023-11-19T01:58:35;6.20;99.90
20398;DHT22;10358;49.590;11.030;2023-11-19T02:01:00;6.20;99.90
20398;DHT22;10358;49.590;11.030;2023-11-19T02:03:31;6.20;99.90
20398;DHT22;10358;49.590;11.030;2023-11-19T02:05:56;6.20;99.90
20398;DHT22;10358;49.590;11.030;2023-11-19T02:08:23;6.20;99.90
20398;DHT22;10358;49.590;11.030;2023-11-19T02:10:48;6.20;99.90
20398;DHT22;10358;49.590;11.030;2023-11-19T02:13:14;6.20;99.90
20398;DHT22;10358;49.590;11.030;2023-11-19T02:15:41;6.20;99.90
20398;DHT22;10358;49.590;11.030;2023-11-19T02:18:36;6.20;99.90
20398;DHT22;10358;49.590;11.030;2023-11-19T02:21:02;6.20;99.90
20398;DHT22;10358;49.590;11.030;2023-11-19T02:23:28;6.20;99.90
20398;DHT22;10358;49.590;11.030;2023-11-19T02:28:19;6.30;99.90
20398;DHT22;10358;49.590;11.030;2023-11-19T02:30:45;6.30;99.90
20398;DHT22;10358;49.590;11.030;2023-11-19T02:33:10;6.30;99.90
20398;DHT22;10358;49.590;11.030;2023-11-19T02:35:36;6.30;99.90
20398;DHT22;10358;49.590;11.030;2023-11-19T02:38:01;6.30;99.90
20398;DHT22;10358;49.590;11.030;2023-11-19T02:40:29;6.30;99.90
20398;DHT22;10358;49.590;11.030;2023-11-19T02:42:55;6.30;99.90
20398;DHT22;10358;49.590;11.030;2023-11-19T02:45:22;6.30;99.90
20398;DHT22;10358;49.590;11.030;2023-11-19T02:47:48;6.30;99.90
20398;DHT22;10358;49.590;11.030;2023-11-19T02:50:14;6.40;99.90
20398;DHT22;10358;49.590;11.030;2023-11-19T02:52:44;6.40;99.90
20398;DHT22;10358;49.590;11.030;2023-11-19T02:55:11;6.40;99.90
20398;DHT22;10358;49.590;11.030;2023-11-19T02:57:41;6.40;99.90
20398;DHT22;10358;49.590;11.030;2023-11-19T03:00:18;6.50;99.90
20398;DHT22;10358;49.590;11.030;2023-11-19T03:02:44;6.40;99.90
20398;DHT22;10358;49.590;11.030;2023-11-19T03:05:14;6.40;99.90
20398;DHT22;10358;49.590;11.030;2023-11-19T03:07:43;6.50;99.90
20398;DHT22;10358;49.590;11.030;2023-11-19T03:10:12;6.50;99.90
20398;DHT22;10358;49.590;11.030;2023-11-19T03:12:44;6.40;99.90
20398;DHT22;10358;49.590;11.030;2023-11-19T03:15:10;6.40;99.90
20398;DHT22;10358;49.590;11.030;2023-11-19T03:17:38;6.40;99.90
20398;DHT22;10358;49.590;11.030;2023-11-19T03:20:06;6.40;99.90
20398;DHT22;10358;49.590;11.030;2023-11-19T03:22:32;6.50;99.90
20398;DHT22;10358;49.590;11.030;2023-11-19T03:24:59;6.50;99.90
20398;DHT22;10358;49.590;11.030;2023-11-19T03:27:25;6.50;99.90
20398;DHT22;10358;49.590;11.030;2023-11-19T03:29:50;6.50;99.90
20398;DHT22;10358;49.590;11.030;2023-11-19T03:32:16;6.50;99.90
20398;DHT22;10358;49.590;11.030;2023-11-19T03:34:41;6.50;99.90
20398;DHT22;10358;49.590;11.030;2023-11-19T03:37:07;6.50;99.90
20398;DHT22;10358;49.590;11.030;2023-11-19T03:39:32;6.50;99.90
20398;DHT22;10358;49.590;11.030;2023-11-19T03:41:58;6.50;99.90
20398;DHT22;10358;49.590;11.030;2023-11-19T03:44:26;6.60;99.90
20398;DHT22;10358;49.590;11.030;2023-11-19T03:46:52;6.60;99.90
20398;DHT22;10358;49.590;11.030;2023-11-19T03:49:18;6.60;99.90
20398;DHT22;10358;49.590;11.030;2023-11-19T03:51:43;6.50;99.90
20398;DHT22;10358;49.590;11.030;2023-11-19T03:54:09;6.60;99.90
20398;DHT22;10358;49.590;11.030;2023-11-19T03:56:35;6.50;99.90
20398;DHT22;10358;49.590;11.030;2023-11-19T03:59:00;6.50;99.90
20398;DHT22;10358;49.590;11.030;2023-11-19T04:01:26;6.50;99.90
20398;DHT22;10358;49.590;11.030;2023-11-19T04:03:51;6.50;99.90
20398;DHT22;10358;49.590;11.030;2023-11-19T04:06:17;6.60;99.90
20398;DHT22;10358;49.590;11.030;2023-11-19T04:08:42;6.60;99.90
20398;DHT22;10358;49.590;11.030;2023-11-19T04:11:08;6.70;99.90
20398;DHT22;10358;49.590;11.030;2023-11-19T04:13:34;6.60;99.90
20398;DHT22;10358;49.590;11.030;2023-11-19T04:16:00;6.70;99.90
20398;DHT22;10358;49.590;11.030;2023-11-19T04:18:25;6.70;99.90
20398;DHT22;10358;49.590;11.030;2023-11-19T04:20:51;6.70;99.90
20398;DHT22;10358;49.590;11.030;2023-11-19T04:23:16;6.80;99.90
20398;DHT22;10358;49.590;11.030;2023-11-19T04:25:42;6.70;99.90
20398;DHT22;10358;49.590;11.030;2023-11-19T04:28:07;6.70;99.90
20398;DHT22;10358;49.590;11.030;2023-11-19T04:30:33;6.80;99.90
20398;DHT22;10358;49.590;11.030;2023-11-19T04:32:59;6.80;99.90
20398;DHT22;10358;49.590;11.030;2023-11-19T04:35:24;6.80;99.90
20398;DHT22;10358;49.590;11.030;2023-11-19T04:37:51;6.80;99.90
20398;DHT22;10358;49.590;11.030;2023-11-19T04:40:17;6.80;99.90
20398;DHT22;10358;49.590;11.030;2023-11-19T04:42:43;6.80;99.90
20398;DHT22;10358;49.590;11.030;2023-11-19T04:45:09;6.80;99.90
20398;DHT22;10358;49.590;11.030;2023-11-19T04:47:36;6.80;99.90
20398;DHT22;10358;49.590;11.030;2023-11-19T04:50:02;6.80;99.90
20398;DHT22;10358;49.590;11.030;2023-11-19T04:52:28;6.80;99.90
20398;DHT22;10358;49.590;11.030;2023-11-19T04:54:54;6.80;99.90
20398;DHT22;10358;49.590;11.030;2023-11-19T04:57:19;6.80;99.90
20398;DHT22;10358;49.590;11.030;2023-11-19T04:59:45;6.80;99.90
20398;DHT22;10358;49.590;11.030;2023-11-19T05:02:10;6.80;99.90
20398;DHT22;10358;49.590;11.030;2023-11-19T05:04:36;6.80;99.90
20398;DHT22;10358;49.590;11.030;2023-11-19T05:07:03;6.80;99.90
20398;DHT22;10358;49.590;11.030;2023-11-19T05:09:28;6.80;99.90
20398;DHT22;10358;49.590;11.030;2023-11-19T05:11:54;6.80;99.90
20398;DHT22;10358;49.590;11.030;2023-11-19T05:14:20;6.80;99.90
20398;DHT22;10358;49.590;11.030;2023-11-19T05:16:46;6.90;99.90
20398;DHT22;10358;49.590;11.030;2023-11-19T05:19:12;6.90;99.90
20398;DHT22;10358;49.590;11.030;2023-11-19T05:21:37;6.90;99.90
20398;DHT22;10358;49.590;11.030;2023-11-19T05:24:03;6.90;99.90
20398;DHT22;10358;49.590;11.030;2023-11-19T05:26:30;6.90;99.90
20398;DHT22;10358;49.590;11.030;2023-11-19T05:28:56;6.90;99.90
20398;DHT22;10358;49.590;11.030;2023-11-19T05:31:21;6.90;99.90
20398;DHT22;10358;49.590;11.030;2023-11-19T05:33:47;6.90;99.90
20398;DHT22;10358;49.590;11.030;2023-11-19T05:36:13;6.90;99.90
20398;DHT22;10358;49.590;11.030;2023-11-19T05:38:39;7.00;99.90
20398;DHT22;10358;49.590;11.030;2023-11-19T05:41:04;7.00;99.90
20398;DHT22;10358;49.590;11.030;2023-11-19T05:43:30;7.00;99.90
20398;DHT22;10358;49.590;11.030;2023-11-19T05:45:56;7.10;99.90
20398;DHT22;10358;49.590;11.030;2023-11-19T05:48:22;7.20;99.90
20398;DHT22;10358;49.590;11.030;2023-11-19T05:50:48;7.20;99.90
20398;DHT22;10358;49.590;11.030;2023-11-19T05:53:15;7.30;99.90
20398;DHT22;10358;49.590;11.030;2023-11-19T05:55:41;7.30;99.90
20398;DHT22;10358;49.590;11.030;2023-11-19T05:58:21;7.30;99.90
20398;DHT22;10358;49.590;11.030;2023-11-19T06:00:47;7.40;99.90
20398;DHT22;10358;49.590;11.030;2023-11-19T06:03:13;7.40;99.90
20398;DHT22;10358;49.590;11.030;2023-11-19T06:05:38;7.40;99.90
20398;DHT22;10358;49.590;11.030;2023-11-19T06:08:04;7.50;99.90
20398;DHT22;10358;49.590;11.030;2023-11-19T06:10:32;7.50;99.90
20398;DHT22;10358;49.590;11.030;2023-11-19T06:12:58;7.50;99.90
20398;DHT22;10358;49.590;11.030;2023-11-19T06:15:25;7.50;99.90
20398;DHT22;10358;49.590;11.030;2023-11-19T06:17:52;7.50;99.90
20398;DHT22;10358;49.590;11.030;2023-11-19T06:20:17;7.50;99.90
20398;DHT22;10358;49.590;11.030;2023-11-19T06:22:45;7.50;99.90
20398;DHT22;10358;49.590;11.030;2023-11-19T06:25:11;7.60;99.90
20398;DHT22;10358;49.590;11.030;2023-11-19T06:27:36;7.60;99.90
20398;DHT22;10358;49.590;11.030;2023-11-19T06:30:02;7.60;99.90
20398;DHT22;10358;49.590;11.030;2023-11-19T06:32:28;7.60;99.90
20398;DHT22;10358;49.590;11.030;2023-11-19T06:34:54;7.60;99.90
20398;DHT22;10358;49.590;11.030;2023-11-19T06:37:20;7.60;99.90
20398;DHT22;10358;49.590;11.030;2023-11-19T06:39:45;7.70;99.90
20398;DHT22;10358;49.590;11.030;2023-11-19T06:42:11;7.70;99.90
20398;DHT22;10358;49.590;11.030;2023-11-19T06:44:36;7.70;99.90
20398;DHT22;10358;49.590;11.030;2023-11-19T06:47:02;7.70;99.90
20398;DHT22;10358;49.590;11.030;2023-11-19T06:49:28;7.70;99.90
20398;DHT22;10358;49.590;11.030;2023-11-19T06:51:53;7.70;99.90
20398;DHT22;10358;49.590;11.030;2023-11-19T06:54:19;7.80;99.90
20398;DHT22;10358;49.590;11.030;2023-11-19T06:56:44;7.80;99.90
20398;DHT22;10358;49.590;11.030;2023-11-19T06:59:10;7.80;99.90
20398;DHT22;10358;49.590;11.030;2023-11-19T07:01:36;7.80;99.90
20398;DHT22;10358;49.590;11.030;2023-11-19T07:04:02;7.80;99.90
20398;DHT22;10358;49.590;11.030;2023-11-19T07:06:35;7.90;99.90
20398;DHT22;10358;49.590;11.030;2023-11-19T07:09:02;7.90;99.90
20398;DHT22;10358;49.590;11.030;2023-11-19T07:11:36;7.90;99.90
20398;DHT22;10358;49.590;11.030;2023-11-19T07:14:02;8.00;99.90
20398;DHT22;10358;49.590;11.030;2023-11-19T07:16:28;8.00;99.90
20398;DHT22;10358;49.590;11.030;2023-11-19T07:18:54;8.00;99.90
20398;DHT22;10358;49.590;11.030;2023-11-19T07:21:19;8.10;99.90
20398;DHT22;10358;49.590;11.030;2023-11-19T07:23:45;8.10;99.90
20398;DHT22;10358;49.590;11.030;2023-11-19T07:26:12;8.20;99.90
20398;DHT22;10358;49.590;11.030;2023-11-19T07:28:37;8.20;99.90
20398;DHT22;10358;49.590;11.030;2023-11-19T07:31:05;8.30;99.90
20398;DHT22;10358;49.590;11.030;2023-11-19T07:33:33;8.40;99.90
20398;DHT22;10358;49.590;11.030;2023-11-19T07:35:59;8.50;99.90
20398;DHT22;10358;49.590;11.030;2023-11-19T07:38:27;8.50;99.90
20398;DHT22;10358;49.590;11.030;2023-11-19T07:40:52;8.60;99.90
20398;DHT22;10358;49.590;11.030;2023-11-19T07:43:18;8.60;99.90
20398;DHT22;10358;49.590;11.030;2023-11-19T07:45:43;8.60;99.90
20398;DHT22;10358;49.590;11.030;2023-11-19T07:48:10;8.70;99.90
20398;DHT22;10358;49.590;11.030;2023-11-19T07:50:38;8.70;99.90
20398;DHT22;10358;49.590;11.030;2023-11-19T07:53:04;8.70;99.90
20398;DHT22;10358;49.590;11.030;2023-11-19T07:55:29;8.70;99.90
20398;DHT22;10358;49.590;11.030;2023-11-19T07:57:55;8.70;99.90
20398;DHT22;10358;49.590;11.030;2023-11-19T08:00:21;8.70;99.90
20398;DHT22;10358;49.590;11.030;2023-11-19T08:02:46;8.60;99.90
20398;DHT22;10358;49.590;11.030;2023-11-19T08:05:12;8.60;99.90
20398;DHT22;10358;49.590;11.030;2023-11-19T08:07:37;8.60;99.90
20398;DHT22;10358;49.590;11.030;2023-11-19T08:10:04;8.60;99.90
20398;DHT22;10358;49.590;11.030;2023-11-19T08:12:30;8.60;99.90
20398;DHT22;10358;49.590;11.030;2023-11-19T08:14:56;8.60;99.90
20398;DHT22;10358;49.590;11.030;2023-11-19T08:17:24;8.60;99.90
20398;DHT22;10358;49.590;11.030;2023-11-19T08:19:50;8.60;99.90
20398;DHT22;10358;49.590;11.030;2023-11-19T08:22:16;8.70;99.90
20398;DHT22;10358;49.590;11.030;2023-11-19T08:24:42;8.70;99.90
20398;DHT22;10358;49.590;11.030;2023-11-19T08:27:08;8.70;99.90
20398;DHT22;10358;49.590;11.030;2023-11-19T08:29:34;8.70;99.90
20398;DHT22;10358;49.590;11.030;2023-11-19T08:32:01;8.70;99.90
20398;DHT22;10358;49.590;11.030;2023-11-19T08:34:27;8.70;99.90
20398;DHT22;10358;49.590;11.030;2023-11-19T08:36:53;8.80;99.90
20398;DHT22;10358;49.590;11.030;2023-11-19T08:39:19;8.80;99.90
20398;DHT22;10358;49.590;11.030;2023-11-19T08:41:46;8.90;99.90
20398;DHT22;10358;49.590;11.030;2023-11-19T08:44:12;8.90;99.90
20398;DHT22;10358;49.590;11.030;2023-11-19T08:46:38;9.10;99.90
20398;DHT22;10358;49.590;11.030;2023-11-19T08:49:05;9.20;99.90
20398;DHT22;10358;49.590;11.030;2023-11-19T08:51:30;9.30;99.90
20398;DHT22;10358;49.590;11.030;2023-11-19T08:53:56;9.50;99.90
20398;DHT22;10358;49.590;11.030;2023-11-19T08:56:22;9.70;99.90
20398;DHT22;10358;49.590;11.030;2023-11-19T08:58:48;9.90;99.90
20398;DHT22;10358;49.590;11.030;2023-11-19T09:01:14;10.00;99.90
20398;DHT22;10358;49.590;11.030;2023-11-19T09:03:40;10.10;99.90
20398;DHT22;10358;49.590;11.030;2023-11-19T09:06:06;10.30;99.90
20398;DHT22;10358;49.590;11.030;2023-11-19T09:08:32;10.50;99.90
20398;DHT22;10358;49.590;11.030;2023-11-19T09:10:57;10.60;99.90
20398;DHT22;10358;49.590;11.030;2023-11-19T09:13:23;10.70;99.90
20398;DHT22;10358;49.590;11.030;2023-11-19T09:15:48;10.80;99.90
20398;DHT22;10358;49.590;11.030;2023-11-19T09:18:14;10.90;99.90
20398;DHT22;10358;49.590;11.030;2023-11-19T09:20:39;11.00;99.90
20398;DHT22;10358;49.590;11.030;2023-11-19T09:23:05;11.20;99.90
20398;DHT22;10358;49.590;11.030;2023-11-19T09:25:34;11.30;99.90
20398;DHT22;10358;49.590;11.030;2023-11-19T09:27:59;11.50;99.90
20398;DHT22;10358;49.590;11.030;2023-11-19T09:30:25;11.70;99.90
20398;DHT22;10358;49.590;11.030;2023-11-19T09:32:50;11.80;99.90
20398;DHT22;10358;49.590;11.030;2023-11-19T09:35:16;11.90;99.90
20398;DHT22;10358;49.590;11.030;2023-11-19T09:37:43;11.90;99.90
20398;DHT22;10358;49.590;11.030;2023-11-19T09:40:09;11.90;99.90
20398;DHT22;10358;49.590;11.030;2023-11-19T09:42:44;11.90;99.90
20398;DHT22;10358;49.590;11.030;2023-11-19T09:45:14;11.90;99.90
20398;DHT22;10358;49.590;11.030;2023-11-19T09:47:43;11.90;99.90
20398;DHT22;10358;49.590;11.030;2023-11-19T09:50:16;12.00;99.90
20398;DHT22;10358;49.590;11.030;2023-11-19T09:52:42;12.10;99.90
20398;DHT22;10358;49.590;11.030;2023-11-19T09:55:08;12.20;99.90
20398;DHT22;10358;49.590;11.030;2023-11-19T09:57:35;12.20;99.90
20398;DHT22;10358;49.590;11.030;2023-11-19T10:00:03;12.30;99.90
20398;DHT22;10358;49.590;11.030;2023-11-19T10:02:31;12.40;99.90
20398;DHT22;10358;49.590;11.030;2023-11-19T10:04:59;12.40;99.90
20398;DHT22;10358;49.590;11.030;2023-11-19T10:07:25;12.50;99.90
20398;DHT22;10358;49.590;11.030;2023-11-19T10:09:50;12.50;99.90
20398;DHT22;10358;49.590;11.030;2023-11-19T10:12:16;12.60;99.90
20398;DHT22;10358;49.590;11.030;2023-11-19T10:14:43;12.50;99.90
20398;DHT22;10358;49.590;11.030;2023-11-19T10:17:08;12.60;99.90
20398;DHT22;10358;49.590;11.030;2023-11-19T10:19:38;12.60;99.90
20398;DHT22;10358;49.590;11.030;2023-11-19T10:22:05;12.70;99.90
20398;DHT22;10358;49.590;11.030;2023-11-19T10:24:32;12.70;99.90
20398;DHT22;10358;49.590;11.030;2023-11-19T10:27:01;12.80;99.90
20398;DHT22;10358;49.590;11.030;2023-11-19T10:29:29;12.80;99.90
20398;DHT22;10358;49.590;11.030;2023-11-19T10:31:56;12.90;99.90
20398;DHT22;10358;49.590;11.030;2023-11-19T10:34:26;12.90;99.90
20398;DHT22;10358;49.590;11.030;2023-11-19T10:36:55;12.80;99.90
20398;DHT22;10358;49.590;11.030;2023-11-19T10:39:21;12.80;99.90
20398;DHT22;10358;49.590;11.030;2023-11-19T10:41:49;12.80;99.90
20398;DHT22;10358;49.590;11.030;2023-11-19T10:44:31;12.80;99.90
20398;DHT22;10358;49.590;11.030;2023-11-19T10:46:59;12.80;99.90
20398;DHT22;10358;49.590;11.030;2023-11-19T10:49:25;12.70;99.90
20398;DHT22;10358;49.590;11.030;2023-11-19T10:51:51;12.80;99.90
20398;DHT22;10358;49.590;11.030;2023-11-19T10:54:19;12.90;99.90
20398;DHT22;10358;49.590;11.030;2023-11-19T10:56:54;12.80;99.90
20398;DHT22;10358;49.590;11.030;2023-11-19T10:59:21;12.90;99.90
20398;DHT22;10358;49.590;11.030;2023-11-19T11:01:48;12.80;99.90
20398;DHT22;10358;49.590;11.030;2023-11-19T11:04:22;12.80;99.90
20398;DHT22;10358;49.590;11.030;2023-11-19T11:06:48;12.80;99.90
20398;DHT22;10358;49.590;11.030;2023-11-19T11:09:14;12.70;99.90
20398;DHT22;10358;49.590;11.030;2023-11-19T11:11:41;12.80;99.90
20398;DHT22;10358;49.590;11.030;2023-11-19T11:14:12;12.80;99.90
20398;DHT22;10358;49.590;11.030;2023-11-19T11:16:41;12.90;99.90
20398;DHT22;10358;49.590;11.030;2023-11-19T11:19:07;13.10;99.90
20398;DHT22;10358;49.590;11.030;2023-11-19T11:21:36;13.20;99.90
20398;DHT22;10358;49.590;11.030;2023-11-19T11:32:37;13.30;99.90
20398;DHT22;10358;49.590;11.030;2023-11-19T11:38:00;13.40;99.90
20398;DHT22;10358;49.590;11.030;2023-11-19T11:40:39;13.40;99.90
20398;DHT22;10358;49.590;11.030;2023-11-19T11:49:03;13.50;99.90
20398;DHT22;10358;49.590;11.030;2023-11-19T11:54:11;13.50;99.90
20398;DHT22;10358;49.590;11.030;2023-11-19T11:56:39;13.70;99.90
20398;DHT22;10358;49.590;11.030;2023-11-19T11:59:18;13.60;99.90
20398;DHT22;10358;49.590;11.030;2023-11-19T12:02:00;13.60;99.90
20398;DHT22;10358;49.590;11.030;2023-11-19T12:04:27;13.50;99.90
20398;DHT22;10358;49.590;11.030;2023-11-19T12:09:29;13.50;99.90
20398;DHT22;10358;49.590;11.030;2023-11-19T12:12:11;13.50;99.90
20398;DHT22;10358;49.590;11.030;2023-11-19T12:15:10;13.50;99.90
20398;DHT22;10358;49.590;11.030;2023-11-19T12:17:36;13.50;99.90
20398;DHT22;10358;49.590;11.030;2023-11-19T12:20:05;13.40;99.90
20398;DHT22;10358;49.590;11.030;2023-11-19T12:22:36;13.40;99.90
20398;DHT22;10358;49.590;11.030;2023-11-19T12:25:02;13.30;99.90
20398;DHT22;10358;49.590;11.030;2023-11-19T12:27:29;13.20;99.90
20398;DHT22;10358;49.590;11.030;2023-11-19T12:29:55;13.10;99.90
20398;DHT22;10358;49.590;11.030;2023-11-19T12:32:22;13.00;99.90
20398;DHT22;10358;49.590;11.030;2023-11-19T12:34:48;12.90;99.90
20398;DHT22;10358;49.590;11.030;2023-11-19T12:37:13;12.70;99.90
20398;DHT22;10358;49.590;11.030;2023-11-19T12:39:39;12.40;99.90
20398;DHT22;10358;49.590;11.030;2023-11-19T12:42:05;12.10;99.90
20398;DHT22;10358;49.590;11.030;2023-11-19T12:44:31;11.90;99.90
20398;DHT22;10358;49.590;11.030;2023-11-19T12:47:05;11.80;99.90
20398;DHT22;10358;49.590;11.030;2023-11-19T12:49:35;11.80;99.90
20398;DHT22;10358;49.590;11.030;2023-11-19T12:52:00;11.80;99.90
20398;DHT22;10358;49.590;11.030;2023-11-19T12:54:36;11.70;99.90
20398;DHT22;10358;49.590;11.030;2023-11-19T12:57:02;11.70;99.90
20398;DHT22;10358;49.590;11.030;2023-11-19T12:59:28;11.70;99.90
20398;DHT22;10358;49.590;11.030;2023-11-19T13:01:55;11.70;99.90
20398;DHT22;10358;49.590;11.030;2023-11-19T13:04:21;11.70;99.90
20398;DHT22;10358;49.590;11.030;2023-11-19T13:06:47;11.80;99.90
20398;DHT22;10358;49.590;11.030;2023-11-19T13:09:23;11.80;99.90
20398;DHT22;10358;49.590;11.030;2023-11-19T13:11:50;11.90;99.90
20398;DHT22;10358;49.590;11.030;2023-11-19T13:14:15;12.00;99.90
20398;DHT22;10358;49.590;11.030;2023-11-19T13:16:41;12.10;99.90
20398;DHT22;10358;49.590;11.030;2023-11-19T13:19:07;12.10;99.90
20398;DHT22;10358;49.590;11.030;2023-11-19T13:21:34;12.20;99.90
20398;DHT22;10358;49.590;11.030;2023-11-19T13:24:00;12.30;99.90
20398;DHT22;10358;49.590;11.030;2023-11-19T13:26:25;12.30;99.90
20398;DHT22;10358;49.590;11.030;2023-11-19T13:28:51;12.30;99.90
20398;DHT22;10358;49.590;11.030;2023-11-19T13:31:17;12.30;99.90
20398;DHT22;10358;49.590;11.030;2023-11-19T13:33:42;12.30;99.90
20398;DHT22;10358;49.590;11.030;2023-11-19T13:36:08;12.40;99.90
20398;DHT22;10358;49.590;11.030;2023-11-19T13:38:35;12.30;99.90
20398;DHT22;10358;49.590;11.030;2023-11-19T13:41:02;12.40;99.90
20398;DHT22;10358;49.590;11.030;2023-11-19T13:43:27;12.30;99.90
20398;DHT22;10358;49.590;11.030;2023-11-19T13:45:54;12.30;99.90
20398;DHT22;10358;49.590;11.030;2023-11-19T13:48:20;12.30;99.90
20398;DHT22;10358;49.590;11.030;2023-11-19T13:50:45;12.40;99.90
20398;DHT22;10358;49.590;11.030;2023-11-19T13:53:11;12.30;99.90
20398;DHT22;10358;49.590;11.030;2023-11-19T13:55:37;12.20;99.90
20398;DHT22;10358;49.590;11.030;2023-11-19T13:58:02;12.00;99.90
20398;DHT22;10358;49.590;11.030;2023-11-19T14:00:28;11.90;99.90
20398;DHT22;10358;49.590;11.030;2023-11-19T14:02:54;11.80;99.90
20398;DHT22;10358;49.590;11.030;2023-11-19T14:05:19;11.70;99.90
20398;DHT22;10358;49.590;11.030;2023-11-19T14:07:45;11.70;99.90
20398;DHT22;10358;49.590;11.030;2023-11-19T14:10:14;11.70;99.90
20398;DHT22;10358;49.590;11.030;2023-11-19T14:12:41;11.80;99.90
20398;DHT22;10358;49.590;11.030;2023-11-19T14:15:08;11.80;99.90
20398;DHT22;10358;49.590;11.030;2023-11-19T14:17:38;11.80;99.90
20398;DHT22;10358;49.590;11.030;2023-11-19T14:20:04;11.90;99.90
20398;DHT22;10358;49.590;11.030;2023-11-19T14:22:41;11.90;99.90
20398;DHT22;10358;49.590;11.030;2023-11-19T14:25:11;12.10;99.90
20398;DHT22;10358;49.590;11.030;2023-11-19T14:27:41;12.20;99.90
20398;DHT22;10358;49.590;11.030;2023-11-19T14:30:08;12.20;99.90
20398;DHT22;10358;49.590;11.030;2023-11-19T14:32:35;12.20;99.90
20398;DHT22;10358;49.590;11.030;2023-11-19T14:35:01;12.30;99.90
20398;DHT22;10358;49.590;11.030;2023-11-19T14:37:26;12.30;99.90
20398;DHT22;10358;49.590;11.030;2023-11-19T14:39:52;12.30;99.90
20398;DHT22;10358;49.590;11.030;2023-11-19T14:42:17;12.30;99.90
20398;DHT22;10358;49.590;11.030;2023-11-19T14:44:43;12.40;99.90
20398;DHT22;10358;49.590;11.030;2023-11-19T14:47:09;12.50;99.90
20398;DHT22;10358;49.590;11.030;2023-11-19T14:49:35;12.50;99.90
20398;DHT22;10358;49.590;11.030;2023-11-19T14:52:03;12.50;99.90
20398;DHT22;10358;49.590;11.030;2023-11-19T14:54:28;12.50;99.90
20398;DHT22;10358;49.590;11.030;2023-11-19T14:56:54;12.50;99.90
20398;DHT22;10358;49.590;11.030;2023-11-19T14:59:19;12.40;99.90
20398;DHT22;10358;49.590;11.030;2023-11-19T15:01:45;12.40;99.90
20398;DHT22;10358;49.590;11.030;2023-11-19T15:04:11;12.40;99.90
20398;DHT22;10358;49.590;11.030;2023-11-19T15:06:37;12.30;99.90
20398;DHT22;10358;49.590;11.030;2023-11-19T15:09:03;12.30;99.90
20398;DHT22;10358;49.590;11.030;2023-11-19T15:11:29;12.30;99.90
20398;DHT22;10358;49.590;11.030;2023-11-19T15:13:55;12.30;99.90
20398;DHT22;10358;49.590;11.030;2023-11-19T15:16:20;12.30;99.90
20398;DHT22;10358;49.590;11.030;2023-11-19T15:18:51;12.30;99.90
20398;DHT22;10358;49.590;11.030;2023-11-19T15:21:17;12.10;99.90
20398;DHT22;10358;49.590;11.030;2023-11-19T15:23:43;12.10;99.90
20398;DHT22;10358;49.590;11.030;2023-11-19T15:26:09;12.00;99.90
20398;DHT22;10358;49.590;11.030;2023-11-19T15:28:36;11.90;99.90
20398;DHT22;10358;49.590;11.030;2023-11-19T15:31:02;11.90;99.90
20398;DHT22;10358;49.590;11.030;2023-11-19T15:33:28;11.80;99.90
20398;DHT22;10358;49.590;11.030;2023-11-19T15:35:54;11.80;99.90
20398;DHT22;10358;49.590;11.030;2023-11-19T15:38:19;11.70;99.90
20398;DHT22;10358;49.590;11.030;2023-11-19T15:40:45;11.70;99.90
20398;DHT22;10358;49.590;11.030;2023-11-19T15:43:11;11.70;99.90
20398;DHT22;10358;49.590;11.030;2023-11-19T15:45:36;11.70;99.90
20398;DHT22;10358;49.590;11.030;2023-11-19T15:48:05;11.70;99.90